Willis Wharf, Virginia
Current Conditions -  °F | °C
As of 10:55 AM on Wednesday 28 Jan 2015 (Local Time) from KMFV Reporting Station
Clear Clear  
Wind Chill: 20°   Ceiling: Unl
Heat Index: 32°   Visibility: 10mi
Dew Point: 12°   Wind: 21mph
Humidity: 44%   Direction: 330°NNW
Pressure: 30.19"   Gusts: 29mph
Location:  37.52°N, 75.81°W
Report Text: KMFV 281555Z AUTO 33018G25KT 10SM CLR 00/M11 A3019 RMK AO2
Loading
Personal Weather Stations






























Interactive Weather Map New forecast layout! Learn more

10-Day Weather Forecast

Advertisements
Track Severe Weather on mobile